Time;durP1;ratioP1;P1;durP2;ratioP2;P2;SDS_P1;SDS_P2;PMS_P1;PMS_P2;Temp;Humidity;BMP_temperature;BMP_pressure;BME280_temperature;BME280_humidity;BME280_pressure;Samples;Min_cycle;Max_cycle;Signal;HPM_P1;HPM_P2
2021/01/12 00:01:45;;;;;;;15.43;10.10;;;6.60;95.60;;;;;;5013761;28;20099;-74
2021/01/12 00:04:12;;;;;;;;;;;6.60;95.60;;;;;;5029924;28;20436;-74
2021/01/12 00:06:40;;;;;;;13.70;10.00;;;6.60;95.60;;;;;;5032047;28;19921;-73
2021/01/12 00:09:10;;;;;;;17.47;9.17;;;6.60;95.60;;;;;;5019500;28;20048;-74
2021/01/12 00:11:36;;;;;;;11.87;8.70;;;6.70;95.70;;;;;;5033542;28;20044;-75
2021/01/12 00:14:03;;;;;;;14.37;10.10;;;6.70;95.70;;;;;;5016845;28;20049;-75
2021/01/12 00:16:29;;;;;;;15.73;9.10;;;6.70;95.70;;;;;;5002057;28;20046;-74
2021/01/12 00:18:56;;;;;;;12.30;8.13;;;6.80;95.70;;;;;;5025794;28;20532;-73
2021/01/12 00:21:26;;;;;;;16.10;9.67;;;6.80;95.70;;;;;;5013323;28;20418;-75
2021/01/12 00:23:53;;;;;;;15.37;9.30;;;6.80;95.80;;;;;;4999838;28;20061;-74
2021/01/12 00:26:19;;;;;;;12.90;9.10;;;6.80;95.80;;;;;;5025395;28;20051;-75
2021/01/12 00:28:46;;;;;;;13.80;9.23;;;6.80;95.80;;;;;;5014990;28;20064;-75
2021/01/12 00:31:12;;;;;;;12.63;8.80;;;6.90;95.80;;;;;;5024986;28;20037;-74
2021/01/12 00:33:39;;;;;;;13.13;8.13;;;6.80;95.80;;;;;;5033460;28;20045;-75
2021/01/12 00:36:07;;;;;;;12.03;7.40;;;6.90;95.80;;;;;;5024795;28;20080;-75
2021/01/12 00:38:34;;;;;;;14.73;9.37;;;6.90;95.80;;;;;;5028476;28;20046;-75
2021/01/12 00:41:07;;;;;;;14.23;8.40;;;6.90;95.80;;;;;;5034076;28;20038;-74
2021/01/12 00:43:34;;;;;;;11.65;7.93;;;6.90;95.90;;;;;;5032776;28;20041;-74
2021/01/12 00:46:01;;;;;;;13.50;8.43;;;6.90;95.90;;;;;;5020350;28;20397;-74
2021/01/12 00:48:27;;;;;;;14.80;10.27;;;6.90;95.90;;;;;;5030099;28;20405;-73
2021/01/12 00:50:53;;;;;;;18.20;11.90;;;6.90;95.90;;;;;;5032288;28;20073;-73
2021/01/12 00:53:20;;;;;;;17.20;10.70;;;6.90;96.00;;;;;;5030468;28;20269;-74
2021/01/12 00:55:46;;;;;;;16.33;11.30;;;6.90;96.00;;;;;;5019816;28;20072;-76
2021/01/12 00:58:13;;;;;;;16.50;11.47;;;6.90;96.00;;;;;;5024208;28;20064;-75
2021/01/12 01:00:39;;;;;;;18.20;12.23;;;6.90;96.00;;;;;;5013381;28;20076;-75
2021/01/12 01:03:06;;;;;;;17.70;10.57;;;6.90;96.00;;;;;;5025794;28;20037;-76
2021/01/12 01:05:32;;;;;;;16.77;12.23;;;6.90;96.00;;;;;;5012844;28;20037;-75
2021/01/12 01:08:00;;;;;;;19.07;12.40;;;6.90;96.00;;;;;;5030291;28;20042;-75
2021/01/12 01:10:29;;;;;;;18.57;12.37;;;6.90;96.00;;;;;;5013839;28;20042;-75
2021/01/12 01:12:55;;;;;;;20.50;12.83;;;6.90;96.10;;;;;;5030026;28;20096;-75
2021/01/12 01:15:22;;;;;;;18.20;12.40;;;7.00;96.10;;;;;;5025881;28;20124;-76
2021/01/12 01:17:48;;;;;;;16.83;12.17;;;6.90;96.10;;;;;;5028547;28;20407;-75
2021/01/12 01:20:15;;;;;;;17.53;11.87;;;6.90;96.10;;;;;;4998300;28;20041;-75
2021/01/12 01:22:41;;;;;;;18.57;12.03;;;6.90;96.10;;;;;;4994428;28;20050;-75
2021/01/12 01:25:08;;;;;;;15.40;10.43;;;7.00;96.10;;;;;;5013873;28;20049;-75
2021/01/12 01:27:35;;;;;;;17.90;11.10;;;7.00;96.20;;;;;;5044912;28;20049;-75
2021/01/12 01:30:02;;;;;;;15.50;10.83;;;7.00;96.20;;;;;;5012302;28;20034;-74
2021/01/12 01:32:30;;;;;;;16.57;9.83;;;6.90;96.10;;;;;;5028594;28;20137;-75
2021/01/12 01:34:56;;;;;;;12.23;8.87;;;6.90;96.10;;;;;;5012040;28;20041;-74
2021/01/12 01:37:22;;;;;;;15.67;10.77;;;7.00;96.20;;;;;;5013114;28;20125;-74
2021/01/12 01:39:49;;;;;;;18.23;12.00;;;7.00;96.20;;;;;;5033680;28;20053;-74
2021/01/12 01:42:16;;;;;;;17.23;10.87;;;7.00;96.20;;;;;;4992708;28;20046;-75
2021/01/12 01:44:42;;;;;;;18.10;12.07;;;7.00;96.20;;;;;;5012307;28;20073;-75
2021/01/12 01:47:10;;;;;;;16.93;10.03;;;7.00;96.20;;;;;;5004601;28;20049;-76
2021/01/12 01:49:38;;;;;;;14.87;9.93;;;7.00;96.20;;;;;;5016179;28;20202;-74
2021/01/12 01:52:04;;;;;;;16.17;10.13;;;7.00;96.20;;;;;;4996610;28;20375;-73
2021/01/12 01:54:31;;;;;;;14.00;8.87;;;7.00;96.20;;;;;;4993556;28;20082;-74
2021/01/12 01:56:59;;;;;;;13.57;9.17;;;6.90;96.20;;;;;;5021529;28;20095;-71
2021/01/12 01:59:26;;;;;;;15.13;9.80;;;7.00;96.20;;;;;;5011483;28;20045;-71
2021/01/12 02:01:53;;;;;;;13.17;8.20;;;7.00;96.30;;;;;;5011148;28;20038;-71
2021/01/12 02:04:27;;;;;;;14.80;9.30;;;7.00;96.20;;;;;;5011570;28;20060;-72
2021/01/12 02:06:53;;;;;;;12.77;9.13;;;7.00;96.30;;;;;;5011367;28;20069;-72
2021/01/12 02:09:25;;;;;;;12.80;8.30;;;7.00;96.30;;;;;;5019898;28;20041;-72
2021/01/12 02:11:57;;;;;;;13.07;8.83;;;7.00;96.30;;;;;;5010381;28;20071;-72
2021/01/12 02:14:27;;;;;;;15.80;9.50;;;7.00;96.30;;;;;;5002620;28;20092;-72
2021/01/12 02:16:56;;;;;;;14.90;9.50;;;7.00;96.30;;;;;;5010467;28;20288;-72
2021/01/12 02:19:26;;;;;;;13.73;9.47;;;7.00;96.30;;;;;;4990480;28;20050;-72
2021/01/12 02:22:05;;;;;;;14.27;9.10;;;7.00;96.30;;;;;;5040034;28;20486;-72
2021/01/12 02:24:36;;;;;;;12.40;7.80;;;7.00;96.30;;;;;;5011088;28;20096;-72
2021/01/12 02:27:06;;;;;;;14.77;9.17;;;7.00;96.30;;;;;;5010289;28;20045;-72
2021/01/12 02:29:33;;;;;;;12.50;8.20;;;7.00;96.30;;;;;;5002795;28;20100;-72
2021/01/12 02:32:00;;;;;;;13.57;7.90;;;7.00;96.30;;;;;;4991490;28;20046;-72
2021/01/12 02:34:28;;;;;;;14.67;9.13;;;7.10;96.30;;;;;;5010256;28;20056;-72
2021/01/12 02:36:56;;;;;;;12.70;8.10;;;7.10;96.40;;;;;;5010638;28;20042;-72
2021/01/12 02:39:23;;;;;;;11.87;7.87;;;7.10;96.40;;;;;;5009906;28;20096;-72
2021/01/12 02:41:49;;;;;;;12.30;7.50;;;7.10;96.40;;;;;;5011129;28;20038;-72
2021/01/12 02:44:25;;;;;;;11.83;7.73;;;7.10;96.40;;;;;;5010008;28;20560;-72
2021/01/12 02:46:54;;;;;;;9.03;6.20;;;7.10;96.40;;;;;;5010466;28;20057;-72
2021/01/12 02:49:22;;;;;;;12.10;7.13;;;7.10;96.60;;;;;;4993915;28;20042;-72
2021/01/12 02:51:49;;;;;;;11.47;6.60;;;7.20;96.40;;;;;;4990405;28;20503;-72
2021/01/12 02:54:15;;;;;;;10.37;6.67;;;7.20;96.40;;;;;;4990071;28;20046;-72
2021/01/12 02:56:41;;;;;;;10.97;6.10;;;7.20;96.40;;;;;;5010102;28;20104;-72
2021/01/12 02:59:08;;;;;;;10.80;5.93;;;7.20;96.40;;;;;;5009304;28;20057;-72
2021/01/12 03:01:35;;;;;;;10.37;5.60;;;7.30;96.50;;;;;;5014839;28;20090;-72
2021/01/12 03:04:01;;;;;;;10.30;5.60;;;7.30;96.50;;;;;;5026226;28;20041;-72
2021/01/12 03:06:29;;;;;;;9.10;5.80;;;7.30;96.50;;;;;;5029489;28;21235;-72
2021/01/12 03:08:55;;;;;;;10.93;4.90;;;7.30;96.50;;;;;;5013368;28;20089;-72
2021/01/12 03:11:22;;;;;;;9.30;5.43;;;7.30;96.40;;;;;;5022719;28;20161;-72
2021/01/12 03:13:48;;;;;;;9.60;5.73;;;7.30;96.70;;;;;;5013513;28;20082;-72
2021/01/12 03:16:14;;;;;;;9.43;5.33;;;7.40;96.50;;;;;;5013603;28;20053;-72
2021/01/12 03:18:41;;;;;;;10.17;6.37;;;7.40;96.50;;;;;;5014505;28;20046;-72
2021/01/12 03:21:08;;;;;;;8.30;5.40;;;7.40;96.50;;;;;;5007983;28;20100;-72
2021/01/12 03:23:34;;;;;;;8.57;5.20;;;7.40;96.50;;;;;;5013197;28;20045;-72
2021/01/12 03:26:01;;;;;;;10.47;5.70;;;7.40;96.50;;;;;;5014740;28;20497;-72
2021/01/12 03:28:27;;;;;;;9.67;5.43;;;7.40;96.50;;;;;;5013159;28;20386;-72
2021/01/12 03:30:54;;;;;;;10.70;5.67;;;7.40;96.50;;;;;;5014360;28;20038;-72
2021/01/12 03:33:22;;;;;;;7.33;4.13;;;7.40;96.50;;;;;;5014992;28;20543;-72
2021/01/12 03:35:49;;;;;;;10.37;5.73;;;7.40;96.50;;;;;;4996696;28;20046;-72
2021/01/12 03:38:16;;;;;;;7.30;5.07;;;7.50;96.50;;;;;;5013866;28;20046;-72
2021/01/12 03:40:42;;;;;;;8.50;4.87;;;7.50;96.50;;;;;;5014205;28;20046;-72
2021/01/12 03:43:09;;;;;;;10.37;5.67;;;7.50;96.50;;;;;;5016093;28;20482;-72
2021/01/12 03:45:35;;;;;;;10.73;5.50;;;7.50;96.50;;;;;;5014127;28;20112;-72
2021/01/12 03:48:02;;;;;;;7.90;4.70;;;7.50;96.50;;;;;;4996609;28;20051;-72
2021/01/12 03:50:29;;;;;;;8.67;4.93;;;7.50;96.50;;;;;;5014092;28;20426;-72
2021/01/12 03:52:56;;;;;;;7.27;4.30;;;7.50;96.50;;;;;;5012705;28;20100;-72
2021/01/12 03:55:22;;;;;;;7.03;4.63;;;7.50;96.50;;;;;;4996573;28;20556;-72
2021/01/12 03:57:49;;;;;;;9.70;5.70;;;7.50;96.50;;;;;;4995836;28;20473;-72
2021/01/12 04:00:17;;;;;;;7.57;4.80;;;7.50;96.80;;;;;;5000862;28;20101;-72
2021/01/12 04:02:43;;;;;;;9.53;5.13;;;7.50;96.50;;;;;;4997721;28;20042;-71
2021/01/12 04:05:11;;;;;;;7.67;4.00;;;7.50;96.50;;;;;;5013899;28;20141;-70
2021/01/12 04:07:38;;;;;;;8.33;3.97;;;7.50;96.50;;;;;;5013837;28;20045;-70
2021/01/12 04:10:06;;;;;;;8.63;4.80;;;7.50;96.50;;;;;;5013394;28;20034;-70
2021/01/12 04:12:33;;;;;;;6.70;3.13;;;7.50;96.50;;;;;;5011933;28;20084;-71
2021/01/12 04:14:59;;;;;;;4.80;2.70;;;7.50;96.50;;;;;;5012821;28;20064;-71
2021/01/12 04:17:26;;;;;;;7.17;2.70;;;7.60;96.60;;;;;;5020304;28;20030;-71
2021/01/12 04:19:52;;;;;;;5.00;2.87;;;7.60;96.60;;;;;;5015112;28;20046;-72
2021/01/12 04:22:19;;;;;;;6.37;2.87;;;7.60;96.60;;;;;;5013724;28;20050;-72
2021/01/12 04:24:47;;;;;;;5.93;3.17;;;7.60;96.60;;;;;;4995633;28;20053;-72
2021/01/12 04:27:14;;;;;;;6.40;2.90;;;7.60;96.60;;;;;;5012141;28;20050;-72
2021/01/12 04:29:41;;;;;;;7.60;3.03;;;7.60;96.60;;;;;;4995800;28;20065;-72
2021/01/12 04:32:07;;;;;;;5.80;2.93;;;7.60;96.60;;;;;;5012101;28;20043;-72
2021/01/12 04:34:34;;;;;;;5.60;2.97;;;7.60;96.50;;;;;;5012228;28;20069;-72
2021/01/12 04:37:00;;;;;;;7.57;3.60;;;7.60;96.50;;;;;;5013583;28;20084;-72
2021/01/12 04:39:28;;;;;;;5.47;3.03;;;7.60;96.60;;;;;;5011802;28;20045;-72
2021/01/12 04:41:54;;;;;;;5.97;3.40;;;7.60;96.60;;;;;;5011710;28;20042;-72
2021/01/12 04:44:21;;;;;;;8.67;3.87;;;7.60;96.50;;;;;;5012055;28;20049;-72
2021/01/12 04:46:47;;;;;;;8.10;3.60;;;7.60;96.60;;;;;;5012971;28;20112;-72
2021/01/12 04:49:14;;;;;;;5.20;3.23;;;7.60;96.60;;;;;;5011140;28;20409;-72
2021/01/12 04:51:41;;;;;;;6.13;2.97;;;7.60;96.60;;;;;;5013529;28;20052;-72
2021/01/12 04:54:08;;;;;;;7.37;3.10;;;7.70;96.60;;;;;;5011575;28;20061;-72
2021/01/12 04:56:34;;;;;;;6.20;3.13;;;7.70;96.60;;;;;;5013364;28;20540;-72
2021/01/12 04:59:01;;;;;;;5.00;3.07;;;7.60;96.60;;;;;;5012194;28;20096;-72
2021/01/12 05:01:29;;;;;;;7.97;2.50;;;7.70;96.60;;;;;;5011945;28;20073;-72
2021/01/12 05:03:56;;;;;;;5.53;2.70;;;7.70;96.60;;;;;;5014376;28;20462;-71
2021/01/12 05:06:26;;;;;;;5.43;2.80;;;7.70;96.60;;;;;;5011580;28;20139;-72
2021/01/12 05:08:55;;;;;;;6.10;2.87;;;7.70;96.60;;;;;;5012571;28;20437;-72
2021/01/12 05:11:25;;;;;;;7.60;3.00;;;7.70;96.60;;;;;;5012586;28;20041;-72
2021/01/12 05:14:08;;;;;;;6.00;2.50;;;7.70;96.60;;;;;;5011031;28;20097;-72
2021/01/12 05:16:50;;;;;;;;;;;7.70;96.60;;;;;;5012521;28;20378;-72
2021/01/12 05:19:28;;;;;;;6.50;2.33;;;7.70;96.60;;;;;;5012302;28;20386;-73
2021/01/12 05:22:02;;;;;;;6.10;1.90;;;7.70;96.60;;;;;;5012424;28;20103;-73
2021/01/12 05:24:30;;;;;;;5.33;2.63;;;7.70;96.60;;;;;;5011293;28;20050;-73
2021/01/12 05:27:05;;;;;;;7.13;3.00;;;7.70;96.60;;;;;;5011024;28;20062;-72
2021/01/12 05:29:37;;;;;;;6.30;2.67;;;7.70;96.60;;;;;;5011287;28;20393;-72
2021/01/12 05:32:08;;;;;;;4.43;2.25;;;7.70;96.60;;;;;;5011797;28;20490;-72
2021/01/12 05:34:35;;;;;;;5.27;3.00;;;7.70;96.60;;;;;;5012430;28;20041;-71
2021/01/12 05:37:09;;;;;;;4.47;2.40;;;7.80;96.60;;;;;;5012128;28;20038;-71
2021/01/12 05:39:40;;;;;;;7.47;3.30;;;7.80;96.60;;;;;;5011794;28;20048;-71
2021/01/12 05:42:10;;;;;;;6.13;2.40;;;7.80;96.60;;;;;;5010899;28;20092;-71
2021/01/12 05:44:38;;;;;;;4.77;2.70;;;7.80;96.60;;;;;;5005029;28;20645;-71
2021/01/12 05:47:05;;;;;;;5.00;3.20;;;7.80;96.60;;;;;;5010239;28;20074;-71
2021/01/12 05:49:33;;;;;;;8.43;3.20;;;7.80;96.60;;;;;;5010071;28;20046;-71
2021/01/12 05:51:59;;;;;;;7.90;3.57;;;7.80;96.60;;;;;;5011435;28;20034;-71
2021/01/12 05:54:26;;;;;;;8.37;3.80;;;7.80;96.60;;;;;;5011694;28;20092;-71
2021/01/12 05:57:01;;;;;;;7.30;3.20;;;7.80;96.60;;;;;;5010281;28;20490;-71
2021/01/12 05:59:33;;;;;;;6.73;3.70;;;7.80;96.60;;;;;;5010483;28;20148;-71
2021/01/12 06:02:06;;;;;;;6.90;3.43;;;7.80;96.60;;;;;;4999123;28;20050;-72
2021/01/12 06:04:35;;;;;;;5.07;2.93;;;7.90;96.60;;;;;;5011401;28;20405;-72
2021/01/12 06:07:03;;;;;;;5.23;2.30;;;7.80;96.90;;;;;;5011121;28;20111;-72
2021/01/12 06:09:29;;;;;;;3.67;1.90;;;7.80;96.60;;;;;;5010513;28;20126;-72
2021/01/12 06:11:57;;;;;;;2.93;1.43;;;7.80;96.60;;;;;;5011139;28;20085;-72
2021/01/12 06:14:27;;;;;;;2.80;1.30;;;7.80;96.60;;;;;;5011856;28;20034;-72
2021/01/12 06:16:55;;;;;;;3.17;1.20;;;7.80;96.60;;;;;;5016415;28;20068;-72
2021/01/12 06:19:23;;;;;;;1.80;0.87;;;7.80;96.60;;;;;;5019375;28;20038;-72
2021/01/12 06:21:53;;;;;;;2.03;0.80;;;7.80;96.60;;;;;;5011760;28;20100;-72
2021/01/12 06:24:38;;;;;;;3.43;1.00;;;7.80;96.60;;;;;;5019281;28;20054;-72
2021/01/12 06:27:12;;;;;;;3.07;1.30;;;7.90;96.60;;;;;;5003332;28;20494;-72
2021/01/12 06:29:46;;;;;;;4.40;2.10;;;7.90;96.60;;;;;;5010442;28;20046;-72
2021/01/12 06:32:23;;;;;;;2.90;1.47;;;7.80;96.60;;;;;;5009648;28;20464;-72
2021/01/12 06:34:55;;;;;;;3.07;1.20;;;7.80;96.60;;;;;;5011792;28;20042;-72
2021/01/12 06:37:23;;;;;;;2.92;1.58;;;7.90;96.60;;;;;;5014886;28;20042;-72
2021/01/12 06:39:57;;;;;;;3.77;2.10;;;7.90;96.60;;;;;;5014626;28;20432;-72
2021/01/12 06:42:28;;;;;;;4.33;2.07;;;7.90;96.60;;;;;;5014874;28;20080;-72
2021/01/12 06:44:57;;;;;;;3.40;1.60;;;7.90;96.60;;;;;;5014118;28;20103;-72
2021/01/12 06:47:29;;;;;;;5.03;2.30;;;7.90;96.60;;;;;;5013901;28;20057;-72
2021/01/12 06:50:08;;;;;;;4.53;2.33;;;7.90;96.60;;;;;;5013336;28;20478;-71
2021/01/12 06:52:48;;;;;;;4.77;2.30;;;7.90;96.50;;;;;;5015012;28;20053;-72
2021/01/12 06:55:20;;;;;;;4.80;2.57;;;7.90;96.70;;;;;;5014211;28;20038;-72
2021/01/12 06:57:51;;;;;;;5.30;2.07;;;7.80;96.60;;;;;;5013864;28;20038;-72
2021/01/12 07:00:22;;;;;;;3.83;2.37;;;7.90;96.60;;;;;;5013247;28;20049;-72
2021/01/12 07:03:01;;;;;;;3.07;1.60;;;7.90;96.60;;;;;;5014089;28;20046;-72
2021/01/12 07:05:42;;;;;;;4.87;2.10;;;7.90;96.60;;;;;;5013593;28;20050;-72
2021/01/12 07:08:11;;;;;;;8.70;2.90;;;7.80;96.60;;;;;;5013356;28;20049;-72
2021/01/12 07:10:43;;;;;;;5.03;2.00;;;7.80;96.60;;;;;;5014981;28;20048;-72
2021/01/12 07:13:10;;;;;;;5.40;2.72;;;7.80;96.60;;;;;;5013992;28;20058;-72
2021/01/12 07:15:45;;;;;;;4.60;1.90;;;7.80;96.60;;;;;;5013071;28;20038;-72
2021/01/12 07:18:14;;;;;;;4.17;2.33;;;7.80;96.60;;;;;;5012598;28;20030;-72
2021/01/12 07:20:41;;;;;;;5.13;2.03;;;7.80;96.60;;;;;;5012770;28;20145;-72
2021/01/12 07:23:13;;;;;;;4.55;2.10;;;7.80;96.60;;;;;;5014233;28;20417;-72
2021/01/12 07:25:41;;;;;;;4.30;2.50;;;7.70;96.60;;;;;;5012984;28;20053;-72
2021/01/12 07:28:22;;;;;;;3.73;1.83;;;7.70;96.80;;;;;;5014577;28;20397;-72
2021/01/12 07:30:56;;;;;;;5.33;1.70;;;7.70;96.60;;;;;;5012412;28;20039;-72
2021/01/12 07:33:24;;;;;;;4.83;2.27;;;7.70;96.60;;;;;;5008930;28;20123;-72
2021/01/12 07:35:54;;;;;;;4.37;1.70;;;7.70;96.60;;;;;;5025254;28;20775;-72
2021/01/12 07:38:28;;;;;;;3.97;2.03;;;7.60;96.60;;;;;;5009761;28;20112;-72
2021/01/12 07:40:57;;;;;;;5.77;2.60;;;7.60;96.60;;;;;;5011408;28;20092;-72
2021/01/12 07:43:25;;;;;;;4.50;2.27;;;7.60;96.60;;;;;;5014201;28;20041;-72
2021/01/12 07:45:54;;;;;;;5.20;2.73;;;7.60;96.60;;;;;;5013276;28;20042;-72
2021/01/12 07:48:21;;;;;;;4.30;2.30;;;7.60;96.60;;;;;;5012836;28;20481;-72
2021/01/12 07:50:50;;;;;;;3.67;2.30;;;7.60;96.60;;;;;;5012301;28;20038;-72
2021/01/12 07:53:16;;;;;;;3.80;1.70;;;7.60;96.60;;;;;;5013853;28;20128;-72
2021/01/12 07:55:47;;;;;;;4.87;2.27;;;7.60;96.60;;;;;;5012441;28;20072;-72
2021/01/12 07:58:15;;;;;;;5.70;2.03;;;7.60;96.60;;;;;;5012175;28;20058;-72
2021/01/12 08:00:42;;;;;;;4.17;1.87;;;7.60;96.70;;;;;;5013675;28;20136;-72
2021/01/12 08:03:09;;;;;;;7.90;3.27;;;7.60;96.60;;;;;;5013714;28;20042;-72
2021/01/12 08:05:36;;;;;;;5.53;2.93;;;7.60;96.60;;;;;;5011922;28;20057;-72
2021/01/12 08:08:08;;;;;;;5.47;3.00;;;7.60;96.60;;;;;;5013047;28;20092;-72
2021/01/12 08:10:39;;;;;;;4.97;2.93;;;7.60;96.60;;;;;;5012178;28;20814;-72
2021/01/12 08:13:13;;;;;;;7.40;2.87;;;7.50;96.50;;;;;;5012412;28;20092;-72
2021/01/12 08:15:48;;;;;;;4.17;2.50;;;7.50;96.80;;;;;;5011865;28;20046;-72
2021/01/12 08:18:16;;;;;;;4.33;2.33;;;7.50;96.50;;;;;;5012101;28;20050;-72
2021/01/12 08:20:44;;;;;;;4.73;2.97;;;7.50;96.50;;;;;;5011598;28;20096;-72
2021/01/12 08:23:13;;;;;;;6.77;3.43;;;7.50;96.60;;;;;;5011949;28;20045;-72
2021/01/12 08:25:40;;;;;;;5.60;2.60;;;7.50;96.50;;;;;;5013171;28;20343;-72
2021/01/12 08:28:09;;;;;;;4.57;2.40;;;7.50;96.60;;;;;;5012537;28;20116;-73
2021/01/12 08:30:37;;;;;;;4.07;3.00;;;7.40;96.50;;;;;;4995370;28;20112;-72
2021/01/12 08:33:18;;;;;;;4.33;1.97;;;7.40;96.50;;;;;;4995629;28;20046;-72
2021/01/12 08:35:53;;;;;;;4.83;2.37;;;7.40;96.50;;;;;;5012369;28;20478;-72
2021/01/12 08:38:22;;;;;;;3.93;2.23;;;7.40;96.60;;;;;;5011916;28;20038;-72
2021/01/12 08:40:50;;;;;;;5.73;2.67;;;7.40;96.50;;;;;;4979489;28;20076;-72
2021/01/12 08:43:18;;;;;;;3.43;2.20;;;7.40;96.60;;;;;;5013222;28;20076;-73
2021/01/12 08:45:48;;;;;;;3.80;1.80;;;7.40;96.60;;;;;;5011319;28;20128;-73
2021/01/12 08:48:17;;;;;;;3.43;1.50;;;7.40;96.60;;;;;;5011597;28;20092;-74
2021/01/12 08:50:46;;;;;;;7.07;1.73;;;7.40;96.60;;;;;;5011854;28;20124;-72
2021/01/12 08:53:17;;;;;;;4.60;1.27;;;7.30;96.50;;;;;;5011993;28;20108;-72
2021/01/12 08:55:44;;;;;;;3.97;1.30;;;7.20;96.40;;;;;;5011469;28;20046;-72
2021/01/12 08:58:11;;;;;;;4.60;1.73;;;7.10;96.40;;;;;;5011812;28;20038;-72
2021/01/12 09:00:41;;;;;;;4.57;1.20;;;7.10;96.50;;;;;;5012534;28;20100;-72
2021/01/12 09:03:13;;;;;;;4.30;1.23;;;7.00;96.30;;;;;;5011412;28;20041;-72
2021/01/12 09:05:41;;;;;;;2.93;1.00;;;6.80;96.30;;;;;;5012654;28;20464;-72
2021/01/12 09:08:15;;;;;;;2.27;0.80;;;6.80;96.40;;;;;;5012510;28;20048;-72
2021/01/12 09:10:42;;;;;;;2.83;0.83;;;6.70;96.50;;;;;;5012246;28;20042;-72
2021/01/12 09:13:10;;;;;;;5.60;0.80;;;6.70;96.50;;;;;;5012447;28;20572;-72
2021/01/12 09:15:41;;;;;;;2.20;0.70;;;6.70;96.60;;;;;;5012660;28;20073;-72
2021/01/12 09:18:16;;;;;;;3.53;0.50;;;6.80;96.70;;;;;;5012701;28;20065;-72
2021/01/12 09:20:43;;;;;;;3.90;0.67;;;6.80;96.50;;;;;;5010692;28;20103;-72
2021/01/12 09:23:11;;;;;;;2.70;0.83;;;6.80;96.40;;;;;;5012343;28;20119;-72
2021/01/12 09:25:40;;;;;;;1.40;0.57;;;6.80;96.50;;;;;;4991649;28;20069;-72
2021/01/12 09:28:12;;;;;;;0.97;0.40;;;6.70;96.50;;;;;;5028453;28;20096;-72
2021/01/12 09:30:39;;;;;;;1.23;0.50;;;6.70;96.50;;;;;;5027340;28;20041;-72
2021/01/12 09:33:06;;;;;;;2.87;0.40;;;6.70;96.40;;;;;;5012308;28;20058;-72
2021/01/12 09:35:33;;;;;;;2.97;0.53;;;6.70;96.40;;;;;;4994039;28;20096;-72
2021/01/12 09:38:01;;;;;;;2.60;0.80;;;6.70;96.40;;;;;;5001123;28;20045;-72
2021/01/12 09:40:31;;;;;;;1.30;0.40;;;6.60;96.40;;;;;;5011424;28;20045;-72
2021/01/12 09:43:04;;;;;;;;;;;6.70;96.40;;;;;;5011485;28;20103;-72
2021/01/12 09:45:30;;;;;;;3.50;0.40;;;6.70;96.50;;;;;;5011012;28;19976;-72
2021/01/12 09:47:57;;;;;;;1.57;0.50;;;6.70;96.50;;;;;;4997479;28;20107;-72
2021/01/12 09:50:23;;;;;;;2.20;0.50;;;6.70;96.40;;;;;;4991918;28;20125;-72
2021/01/12 09:52:50;;;;;;;5.73;0.93;;;6.70;96.40;;;;;;4993796;28;20054;-72
2021/01/12 09:55:16;;;;;;;2.93;0.90;;;6.70;96.30;;;;;;5011632;28;20536;-72
2021/01/12 09:57:46;;;;;;;4.80;0.80;;;6.70;96.30;;;;;;5012028;28;20038;-72
2021/01/12 10:00:14;;;;;;;2.03;0.60;;;6.70;96.30;;;;;;5012126;28;20066;-73
2021/01/12 10:02:40;;;;;;;5.87;0.83;;;6.70;96.30;;;;;;5012158;28;20042;-73
2021/01/12 10:05:07;;;;;;;2.53;0.50;;;6.70;96.30;;;;;;5010555;28;20442;-73
2021/01/12 10:07:34;;;;;;;3.27;0.93;;;6.70;96.30;;;;;;5011493;28;20049;-73
2021/01/12 10:10:01;;;;;;;2.37;0.50;;;6.70;96.20;;;;;;5012053;28;20038;-73
2021/01/12 10:12:28;;;;;;;2.23;0.43;;;6.70;96.30;;;;;;5016741;28;20038;-74
2021/01/12 10:14:57;;;;;;;1.27;0.20;;;6.70;96.30;;;;;;4999035;28;20046;-73
2021/01/12 10:17:23;;;;;;;2.37;0.30;;;6.70;96.30;;;;;;5014937;28;20042;-73
2021/01/12 10:19:50;;;;;;;2.67;0.70;;;6.80;96.30;;;;;;4997320;28;20058;-73
2021/01/12 10:22:17;;;;;;;1.50;0.40;;;6.80;96.30;;;;;;5011912;28;20109;-73
2021/01/12 10:24:43;;;;;;;2.97;0.63;;;6.70;96.20;;;;;;5006984;28;21122;-73
2021/01/12 10:27:10;;;;;;;2.80;0.53;;;6.70;96.10;;;;;;5010592;28;20065;-73
2021/01/12 10:29:37;;;;;;;2.17;0.40;;;6.60;96.10;;;;;;5013680;28;20049;-73
2021/01/12 10:32:03;;;;;;;3.57;0.97;;;6.70;96.20;;;;;;5014694;28;20037;-73
2021/01/12 10:34:30;;;;;;;1.90;0.30;;;6.60;96.20;;;;;;5011417;28;20105;-73
2021/01/12 10:36:57;;;;;;;2.10;0.30;;;6.60;96.10;;;;;;5012817;28;20069;-73
2021/01/12 10:39:24;;;;;;;1.40;0.50;;;6.60;96.10;;;;;;5018236;28;20042;-74
2021/01/12 10:41:52;;;;;;;0.93;0.27;;;6.60;96.20;;;;;;5047716;28;20045;-73
2021/01/12 10:44:19;;;;;;;1.87;0.27;;;6.60;96.10;;;;;;5004744;28;20049;-74
2021/01/12 10:46:47;;;;;;;0.50;0.20;;;6.50;96.10;;;;;;5031615;28;20068;-74
2021/01/12 10:49:13;;;;;;;0.87;0.20;;;6.50;96.10;;;;;;4999524;28;20502;-74
2021/01/12 10:51:40;;;;;;;0.37;0.10;;;6.40;96.00;;;;;;5007946;28;20069;-74
2021/01/12 10:54:06;;;;;;;2.03;0.20;;;6.30;96.00;;;;;;5025225;28;20456;-74
2021/01/12 10:56:36;;;;;;;2.00;0.10;;;6.20;96.10;;;;;;5014830;28;20378;-74
2021/01/12 10:59:02;;;;;;;1.03;0.20;;;6.20;96.10;;;;;;5015302;28;20453;-73
2021/01/12 11:01:31;;;;;;;2.23;0.10;;;6.00;96.10;;;;;;4994731;28;20047;-72
2021/01/12 11:03:58;;;;;;;0.97;0.10;;;6.00;96.20;;;;;;5014079;28;20134;-73
2021/01/12 11:06:35;;;;;;;1.60;0.10;;;6.00;96.30;;;;;;5013429;28;20096;-73
2021/01/12 11:09:04;;;;;;;0.50;0.10;;;6.10;96.40;;;;;;5013930;28;20105;-73
2021/01/12 11:11:34;;;;;;;0.53;0.17;;;6.10;96.30;;;;;;5013333;28;20085;-72
2021/01/12 11:14:06;;;;;;;0.20;0.00;;;6.00;96.20;;;;;;4997974;28;20096;-73
2021/01/12 11:16:37;;;;;;;1.60;0.00;;;6.00;96.10;;;;;;5013684;28;20038;-73
2021/01/12 11:19:06;;;;;;;2.63;0.20;;;6.00;96.10;;;;;;5014221;28;20528;-73
2021/01/12 11:21:39;;;;;;;2.03;0.10;;;5.90;96.10;;;;;;5013489;28;20041;-73
2021/01/12 11:24:06;;;;;;;1.38;0.20;;;5.90;96.10;;;;;;5013903;28;20045;-74
2021/01/12 11:26:32;;;;;;;2.00;0.20;;;5.80;96.10;;;;;;5013981;28;20575;-74
2021/01/12 11:28:59;;;;;;;2.20;0.10;;;5.80;96.10;;;;;;5027867;28;20042;-75
2021/01/12 11:31:26;;;;;;;1.23;0.10;;;5.80;96.10;;;;;;4993941;28;20049;-75
2021/01/12 11:33:53;;;;;;;1.83;0.20;;;5.80;96.10;;;;;;5012229;28;20066;-74
2021/01/12 11:36:20;;;;;;;2.10;0.10;;;5.80;96.10;;;;;;5015534;28;20057;-74
2021/01/12 11:38:47;;;;;;;1.97;0.20;;;5.80;96.10;;;;;;5013769;28;20045;-75
2021/01/12 11:41:13;;;;;;;2.17;0.20;;;5.80;95.90;;;;;;5014936;28;20129;-74
2021/01/12 11:43:40;;;;;;;3.47;0.30;;;5.80;95.90;;;;;;5007857;28;20457;-74
2021/01/12 11:46:07;;;;;;;4.17;0.27;;;5.70;95.80;;;;;;5014886;28;20068;-74
2021/01/12 11:48:35;;;;;;;1.53;0.20;;;5.80;95.90;;;;;;5014317;28;20038;-75
2021/01/12 11:51:02;;;;;;;2.00;0.20;;;5.80;95.80;;;;;;4997660;28;20068;-74
2021/01/12 11:53:29;;;;;;;4.27;0.43;;;5.80;95.80;;;;;;5014167;28;20045;-74
2021/01/12 11:55:55;;;;;;;2.83;0.33;;;5.80;95.70;;;;;;5013520;28;20077;-74
2021/01/12 11:58:22;;;;;;;1.33;0.20;;;5.90;95.50;;;;;;5015174;28;20092;-74
2021/01/12 12:00:48;;;;;;;3.57;0.20;;;6.00;95.50;;;;;;5013806;28;20453;-73
2021/01/12 12:03:17;;;;;;;0.77;0.20;;;6.00;95.50;;;;;;4994267;28;20054;-74
2021/01/12 12:05:46;;;;;;;0.80;0.10;;;6.00;95.50;;;;;;5005752;28;20061;-73
2021/01/12 12:08:12;;;;;;;2.57;0.33;;;6.10;95.50;;;;;;5014305;28;20478;-74
2021/01/12 12:10:39;;;;;;;2.90;0.40;;;6.10;95.10;;;;;;5012939;28;20042;-73
2021/01/12 12:13:07;;;;;;;3.27;0.47;;;6.00;94.90;;;;;;5013573;28;20088;-75
2021/01/12 12:15:33;;;;;;;3.80;0.77;;;6.00;95.00;;;;;;5013887;28;20038;-73
2021/01/12 12:18:00;;;;;;;4.03;0.30;;;5.90;94.70;;;;;;5014008;28;20042;-73
2021/01/12 12:20:27;;;;;;;5.70;0.37;;;5.90;94.70;;;;;;5013832;28;20125;-73
2021/01/12 12:22:54;;;;;;;1.67;0.20;;;5.90;94.30;;;;;;5013307;28;20551;-73
2021/01/12 12:25:20;;;;;;;2.47;0.30;;;5.90;93.60;;;;;;4997148;28;20050;-74
2021/01/12 12:27:46;;;;;;;3.07;0.30;;;5.90;93.70;;;;;;5013514;28;20493;-74
2021/01/12 12:30:13;;;;;;;1.43;0.20;;;5.80;93.60;;;;;;4997096;28;20062;-74
2021/01/12 12:32:40;;;;;;;2.63;0.20;;;5.80;93.80;;;;;;5013340;28;20037;-74
2021/01/12 12:35:07;;;;;;;1.97;0.30;;;5.70;93.80;;;;;;5012318;28;20120;-73
2021/01/12 12:37:33;;;;;;;2.80;0.30;;;5.70;93.60;;;;;;5013717;28;20069;-73
2021/01/12 12:40:00;;;;;;;0.40;0.10;;;5.70;93.40;;;;;;5019975;28;20555;-74
2021/01/12 12:42:26;;;;;;;3.77;0.40;;;5.70;93.50;;;;;;5016007;28;20042;-74
2021/01/12 12:44:53;;;;;;;2.87;0.20;;;5.70;93.60;;;;;;5014323;28;20042;-74
2021/01/12 12:47:20;;;;;;;5.17;0.30;;;5.70;93.40;;;;;;5012848;28;20077;-74
2021/01/12 12:49:46;;;;;;;2.00;0.10;;;5.70;93.30;;;;;;5013779;28;20114;-74
2021/01/12 12:52:13;;;;;;;3.90;0.20;;;5.70;93.40;;;;;;5020122;28;20033;-73
2021/01/12 12:54:40;;;;;;;1.90;0.17;;;5.80;93.40;;;;;;5012594;28;20100;-73
2021/01/12 12:57:07;;;;;;;3.80;0.27;;;5.70;93.40;;;;;;5012277;28;20088;-73
2021/01/12 12:59:34;;;;;;;4.83;0.40;;;5.80;92.70;;;;;;4995220;28;20046;-72
2021/01/12 13:02:01;;;;;;;3.07;0.30;;;5.80;92.70;;;;;;5011968;28;20041;-73